createdAt,value
2019-03-08T00:00:18.598Z,11.67
2019-03-08T00:02:47.354Z,8.57
2019-03-08T00:05:16.441Z,4.17
2019-03-08T00:07:44.922Z,9.97
2019-03-08T00:10:14.017Z,6.33
2019-03-08T00:12:42.704Z,5.40
2019-03-08T00:15:13.942Z,6.63
2019-03-08T00:17:42.589Z,5.43
2019-03-08T00:20:11.358Z,8.10
2019-03-08T00:22:40.098Z,6.53
2019-03-08T00:25:13.211Z,4.33
2019-03-08T00:27:41.806Z,9.30
2019-03-08T00:30:14.898Z,9.23
2019-03-08T00:32:43.794Z,8.33
2019-03-08T00:35:12.895Z,4.53
2019-03-08T00:37:41.427Z,7.67
2019-03-08T00:40:13.021Z,5.30
2019-03-08T00:42:41.506Z,14.97
2019-03-08T00:45:12.680Z,10.43
2019-03-08T00:47:43.406Z,6.10
2019-03-08T00:50:11.634Z,7.73
2019-03-08T00:52:40.190Z,5.40
2019-03-08T00:55:10.486Z,7.97
2019-03-08T00:57:39.146Z,10.57
2019-03-08T01:00:10.787Z,5.13
2019-03-08T01:02:39.366Z,6.00
2019-03-08T01:05:08.988Z,7.43
2019-03-08T01:07:37.586Z,8.63
2019-03-08T01:10:09.214Z,8.00
2019-03-08T01:12:37.737Z,6.10
2019-03-08T01:15:09.510Z,16.87
2019-03-08T01:17:38.977Z,6.63
2019-03-08T01:20:09.944Z,8.43
2019-03-08T01:22:38.495Z,7.17
2019-03-08T01:25:07.881Z,9.33
2019-03-08T01:27:36.609Z,9.97
2019-03-08T01:30:10.787Z,10.17
2019-03-08T01:32:39.267Z,10.43
2019-03-08T01:35:08.253Z,11.13
2019-03-08T01:37:36.882Z,12.07
2019-03-08T01:40:07.951Z,10.93
2019-03-08T01:42:36.509Z,13.00
2019-03-08T01:45:07.394Z,10.43
2019-03-08T01:47:35.955Z,10.33
2019-03-08T01:50:06.419Z,10.17
2019-03-08T01:52:34.969Z,13.97
2019-03-08T01:55:05.378Z,10.80
2019-03-08T01:57:34.003Z,7.60
2019-03-08T02:00:02.622Z,11.33
2019-03-08T02:02:31.222Z,12.50
2019-03-08T02:04:59.706Z,9.50
2019-03-08T02:07:28.330Z,7.93
2019-03-08T02:09:56.859Z,12.00
2019-03-08T02:12:25.419Z,13.23
2019-03-08T02:14:54.897Z,11.70
2019-03-08T02:17:23.423Z,12.20
2019-03-08T02:19:51.945Z,11.07
2019-03-08T02:22:20.426Z,9.67
2019-03-08T02:24:48.886Z,11.37
2019-03-08T02:27:17.435Z,9.83
2019-03-08T02:29:45.966Z,11.97
2019-03-08T02:32:14.603Z,10.57
2019-03-08T02:34:43.158Z,9.93
2019-03-08T02:37:11.689Z,5.53
2019-03-08T02:39:40.243Z,7.07
2019-03-08T02:42:08.807Z,7.43
2019-03-08T02:44:37.321Z,7.00
2019-03-08T02:47:05.766Z,6.33
2019-03-08T02:49:34.432Z,8.53
2019-03-08T02:52:02.977Z,3.13
2019-03-08T02:54:31.429Z,5.87
2019-03-08T02:56:59.981Z,5.43
2019-03-08T02:59:28.442Z,5.80
2019-03-08T03:01:56.995Z,5.40
2019-03-08T03:04:25.568Z,4.60
2019-03-08T03:06:54.091Z,5.57
2019-03-08T03:09:22.674Z,6.97
2019-03-08T03:11:51.206Z,6.50
2019-03-08T03:14:19.730Z,7.03
2019-03-08T03:16:48.285Z,7.53
2019-03-08T03:19:16.733Z,8.03
2019-03-08T03:21:45.381Z,6.03
2019-03-08T03:24:13.865Z,11.83
2019-03-08T03:26:42.350Z,11.83
2019-03-08T03:29:10.901Z,9.67
2019-03-08T03:31:39.346Z,10.53
2019-03-08T03:34:07.911Z,9.67
2019-03-08T03:36:36.834Z,5.87
2019-03-08T03:39:06.908Z,5.93
2019-03-08T03:41:36.207Z,7.13
2019-03-08T03:44:04.849Z,10.53
2019-03-08T03:46:33.416Z,14.37
2019-03-08T03:49:01.956Z,11.53
2019-03-08T03:51:30.710Z,10.67
2019-03-08T03:53:59.202Z,12.47
2019-03-08T03:56:27.726Z,12.23
2019-03-08T03:58:56.431Z,11.80
2019-03-08T04:01:32.530Z,9.63
2019-03-08T04:04:01.278Z,12.47
2019-03-08T04:06:29.727Z,13.33
2019-03-08T04:08:58.306Z,9.83
2019-03-08T04:11:26.870Z,12.17
2019-03-08T04:13:55.324Z,10.40
2019-03-08T04:16:23.870Z,11.73
2019-03-08T04:18:52.695Z,12.10
2019-03-08T04:21:21.255Z,15.43
2019-03-08T04:23:49.785Z,15.17
2019-03-08T04:26:18.259Z,19.93
2019-03-08T04:28:46.790Z,14.90
2019-03-08T04:31:15.406Z,10.33
2019-03-08T04:33:43.962Z,12.50
2019-03-08T04:36:12.492Z,21.27
2019-03-08T04:38:41.043Z,8.80
2019-03-08T04:41:09.574Z,15.93
2019-03-08T04:43:38.145Z,7.87
2019-03-08T04:46:06.777Z,11.33
2019-03-08T04:48:35.323Z,8.17
2019-03-08T04:51:03.873Z,6.30
2019-03-08T04:53:32.322Z,12.07
2019-03-08T04:56:00.814Z,12.37
2019-03-08T04:58:29.258Z,8.57
2019-03-08T05:00:57.790Z,11.17
2019-03-08T05:03:26.263Z,15.33
2019-03-08T05:05:54.790Z,15.13
2019-03-08T05:08:23.402Z,19.17
2019-03-08T05:10:51.850Z,15.57
2019-03-08T05:13:20.374Z,6.67
2019-03-08T05:15:48.922Z,9.83
2019-03-08T05:18:17.486Z,8.33
2019-03-08T05:20:46.009Z,9.77
2019-03-08T05:23:14.564Z,7.80
2019-03-08T05:25:43.085Z,12.17
2019-03-08T05:28:11.614Z,8.10
2019-03-08T05:30:40.186Z,7.43
2019-03-08T05:33:08.713Z,13.03
2019-03-08T05:35:37.239Z,23.00
2019-03-08T05:38:05.799Z,20.30
2019-03-08T05:40:34.321Z,17.17
2019-03-08T05:43:04.109Z,13.43
2019-03-08T05:45:32.841Z,12.10
2019-03-08T05:48:01.385Z,12.93
2019-03-08T05:50:29.942Z,20.53
2019-03-08T05:52:58.491Z,12.20
2019-03-08T05:55:27.045Z,9.87
2019-03-08T05:57:55.565Z,18.83
2019-03-08T06:00:31.945Z,10.10
2019-03-08T06:02:55.942Z,15.10
2019-03-08T06:05:24.425Z,18.50
2019-03-08T06:07:52.952Z,19.03
2019-03-08T06:10:32.926Z,15.53
2019-03-08T06:13:02.914Z,22.70
2019-03-08T06:15:31.464Z,13.53
2019-03-08T06:18:00.030Z,19.03
2019-03-08T06:20:28.576Z,14.63
2019-03-08T06:22:57.279Z,19.77
2019-03-08T06:25:25.984Z,11.43
2019-03-08T06:27:54.490Z,19.33
2019-03-08T06:30:23.168Z,9.73
2019-03-08T06:32:51.986Z,17.77
2019-03-08T06:35:20.525Z,24.67
2019-03-08T06:37:49.009Z,17.40
2019-03-08T06:40:17.697Z,15.00
2019-03-08T06:42:46.279Z,23.97
2019-03-08T06:45:17.008Z,16.67
2019-03-08T06:47:45.847Z,22.73
2019-03-08T06:50:15.522Z,19.83
2019-03-08T06:52:44.213Z,18.07
2019-03-08T06:55:14.942Z,18.33
2019-03-08T06:57:43.535Z,12.60
2019-03-08T07:00:37.094Z,17.87
2019-03-08T07:03:07.263Z,20.37
2019-03-08T07:05:35.831Z,18.00
2019-03-08T07:08:05.025Z,14.83
2019-03-08T07:10:33.693Z,17.80
2019-03-08T07:13:03.641Z,18.40
2019-03-08T07:15:32.373Z,10.23
2019-03-08T07:18:01.393Z,21.67
2019-03-08T07:20:37.339Z,21.07
2019-03-08T07:23:07.505Z,16.40
2019-03-08T07:25:38.006Z,14.00
2019-03-08T07:28:23.638Z,15.13
2019-03-08T07:31:09.853Z,13.20
2019-03-08T07:33:43.039Z,13.20
2019-03-08T07:36:29.465Z,10.30
2019-03-08T07:39:11.567Z,26.87
2019-03-08T07:41:50.954Z,16.87
2019-03-08T07:48:02.316Z,17.87
2019-03-08T07:50:32.584Z,13.77
2019-03-08T07:53:03.104Z,10.83
2019-03-08T07:55:33.196Z,11.30
2019-03-08T07:58:03.355Z,17.43
2019-03-08T08:00:49.955Z,18.47
2019-03-08T08:03:32.037Z,13.30
2019-03-08T08:06:08.301Z,14.07
2019-03-08T08:08:51.446Z,9.60
2019-03-08T08:11:31.117Z,18.57
2019-03-08T08:14:10.348Z,9.90
2019-03-08T08:16:40.445Z,11.50
2019-03-08T08:19:10.536Z,18.10
2019-03-08T08:21:57.201Z,15.07
2019-03-08T08:24:30.208Z,15.73
2019-03-08T08:27:09.461Z,16.57
2019-03-08T08:29:54.841Z,15.00
2019-03-08T08:32:27.741Z,17.07
2019-03-08T08:35:06.510Z,20.57
2019-03-08T08:37:52.073Z,14.53
2019-03-08T08:40:22.175Z,23.17
2019-03-08T08:42:52.319Z,33.37
2019-03-08T08:45:37.693Z,16.43
2019-03-08T08:48:15.054Z,18.27
2019-03-08T08:50:47.848Z,14.97
2019-03-08T08:53:17.920Z,20.07
2019-03-08T08:55:48.408Z,26.23
2019-03-08T08:58:27.691Z,31.67
2019-03-08T09:01:09.597Z,25.83
2019-03-08T09:03:51.648Z,10.93
2019-03-08T09:06:21.700Z,21.70
2019-03-08T09:08:51.778Z,22.67
2019-03-08T09:11:31.217Z,18.87
2019-03-08T09:14:04.028Z,24.43
2019-03-08T09:16:43.404Z,21.80
2019-03-08T09:19:19.341Z,21.63
2019-03-08T09:21:51.957Z,24.87
2019-03-08T09:24:25.498Z,18.83
2019-03-08T09:27:12.353Z,17.87
2019-03-08T09:29:45.247Z,18.50
2019-03-08T09:32:15.496Z,21.30
2019-03-08T09:34:45.670Z,22.30
2019-03-08T09:37:31.988Z,16.73
2019-03-08T09:40:02.191Z,18.97
2019-03-08T09:42:48.772Z,23.27
2019-03-08T09:45:33.884Z,30.53
2019-03-08T09:48:10.742Z,12.77
2019-03-08T09:50:47.066Z,34.67
2019-03-08T09:53:17.157Z,16.83
2019-03-08T09:55:47.324Z,23.37
2019-03-08T09:58:20.239Z,9.80
2019-03-08T10:00:59.352Z,26.83
2019-03-08T10:03:35.259Z,22.03
2019-03-08T10:06:05.416Z,29.57
2019-03-08T10:08:38.180Z,10.13
2019-03-08T10:11:08.283Z,19.37
2019-03-08T10:13:38.425Z,21.60
2019-03-08T10:16:08.691Z,16.47
2019-03-08T10:18:50.337Z,25.80
2019-03-08T10:21:20.424Z,25.27
2019-03-08T10:24:06.943Z,17.03
2019-03-08T10:26:39.832Z,17.43
2019-03-08T10:29:18.892Z,16.20
2019-03-08T10:31:49.043Z,16.00
2019-03-08T10:34:27.678Z,11.00
2019-03-08T10:37:00.504Z,16.07
2019-03-08T10:39:33.493Z,8.97
2019-03-08T10:42:19.741Z,8.27
2019-03-08T10:44:49.903Z,8.57
2019-03-08T10:47:36.528Z,7.80
2019-03-08T10:50:23.838Z,17.70
2019-03-08T10:52:54.011Z,15.73
2019-03-08T10:55:25.612Z,21.70
2019-03-08T10:58:01.333Z,15.13
2019-03-08T11:00:37.534Z,10.50
2019-03-08T11:03:19.860Z,19.83
2019-03-08T11:05:52.717Z,7.30
2019-03-08T11:08:39.417Z,9.00
2019-03-08T11:11:26.269Z,18.97
2019-03-08T11:14:02.407Z,15.57
2019-03-08T11:16:35.013Z,16.53
2019-03-08T11:19:20.181Z,26.50
2019-03-08T11:21:50.251Z,20.73
2019-03-08T11:24:20.347Z,19.83
2019-03-08T11:27:04.803Z,22.03
2019-03-08T11:29:43.694Z,25.27
2019-03-08T11:32:30.543Z,18.10
2019-03-08T11:35:06.833Z,19.40
2019-03-08T11:37:46.109Z,17.73
2019-03-08T11:40:29.095Z,10.37
2019-03-08T11:43:15.493Z,11.73
2019-03-08T11:46:00.935Z,29.27
2019-03-08T11:48:45.854Z,16.07
2019-03-08T11:51:31.265Z,14.43
2019-03-08T11:54:04.339Z,21.13
2019-03-08T11:56:37.816Z,23.07
2019-03-08T11:59:22.751Z,21.73
2019-03-08T12:02:11.057Z,13.90
2019-03-08T12:04:56.235Z,13.23
2019-03-08T12:07:26.332Z,19.40
2019-03-08T12:10:12.621Z,22.50
2019-03-08T12:12:51.740Z,26.73
2019-03-08T12:15:27.706Z,9.83
2019-03-08T12:18:07.204Z,27.10
2019-03-08T12:20:49.208Z,24.40
2019-03-08T12:23:19.382Z,26.03
2019-03-08T12:25:55.560Z,17.83
2019-03-08T12:28:28.301Z,28.63
2019-03-08T12:30:58.413Z,8.97
2019-03-08T12:33:34.602Z,8.87
2019-03-08T12:36:19.725Z,15.83
2019-03-08T12:38:52.527Z,19.37
2019-03-08T12:41:28.427Z,24.40
2019-03-08T12:44:13.831Z,31.50
2019-03-08T12:46:44.093Z,19.87
2019-03-08T12:49:14.331Z,18.53
2019-03-08T12:51:56.467Z,21.03
2019-03-08T12:54:43.076Z,16.93
2019-03-08T12:57:28.466Z,25.23
2019-03-08T13:00:01.348Z,24.47
2019-03-08T13:02:31.701Z,14.40
2019-03-08T13:05:01.827Z,18.73
2019-03-08T13:07:31.897Z,18.27
2019-03-08T13:10:07.713Z,23.13
2019-03-08T13:12:36.253Z,18.03
2019-03-08T13:15:07.857Z,20.13
2019-03-08T13:17:36.400Z,20.73
2019-03-08T13:20:13.733Z,28.73
2019-03-08T13:22:42.184Z,23.13
2019-03-08T13:25:10.987Z,18.30
2019-03-08T13:27:39.498Z,24.30
2019-03-08T13:30:14.894Z,23.23
2019-03-08T13:32:43.420Z,21.30
2019-03-08T13:35:13.708Z,21.40
2019-03-08T13:37:42.145Z,27.73
2019-03-08T13:40:16.017Z,26.30
2019-03-08T13:42:44.529Z,25.87
2019-03-08T13:45:24.270Z,29.20
2019-03-08T13:47:52.846Z,28.07
2019-03-08T13:50:21.473Z,22.70
2019-03-08T13:52:49.904Z,26.13
2019-03-08T13:55:18.483Z,21.80
2019-03-08T13:57:47.018Z,20.30
2019-03-08T14:00:19.229Z,21.33
2019-03-08T14:02:47.892Z,20.17
2019-03-08T14:05:16.475Z,19.93
2019-03-08T14:07:44.947Z,22.47
2019-03-08T14:10:18.605Z,10.73
2019-03-08T14:12:47.121Z,13.90
2019-03-08T14:15:17.662Z,12.53
2019-03-08T14:17:46.122Z,21.37
2019-03-08T14:20:23.059Z,20.27
2019-03-08T14:22:51.567Z,11.13
2019-03-08T14:25:20.101Z,13.20
2019-03-08T14:27:48.884Z,21.23
2019-03-08T14:30:26.830Z,13.67
2019-03-08T14:32:57.919Z,20.73
2019-03-08T14:35:26.108Z,18.63
2019-03-08T14:37:57.012Z,15.13
2019-03-08T14:40:43.395Z,14.80
2019-03-08T14:43:22.305Z,19.63
2019-03-08T14:45:58.237Z,9.83
2019-03-08T14:48:26.718Z,19.23
2019-03-08T14:50:55.149Z,17.97
2019-03-08T14:53:23.584Z,11.90
2019-03-08T14:55:55.201Z,12.73
2019-03-08T14:58:22.261Z,8.30
2019-03-08T15:00:50.717Z,10.57
2019-03-08T15:03:20.176Z,18.37
2019-03-08T15:05:51.124Z,15.03
2019-03-08T15:08:19.504Z,16.57
2019-03-08T15:10:51.143Z,14.63
2019-03-08T15:13:20.213Z,12.20
2019-03-08T15:15:48.432Z,8.73
2019-03-08T15:18:17.033Z,6.57
2019-03-08T15:20:45.492Z,18.73
2019-03-08T15:23:17.243Z,12.43
2019-03-08T15:25:45.309Z,13.93
2019-03-08T15:28:14.398Z,14.67
2019-03-08T15:30:43.145Z,19.60
2019-03-08T15:33:11.668Z,8.50
2019-03-08T15:35:40.096Z,7.63
2019-03-08T15:38:09.987Z,16.23
2019-03-08T15:40:38.804Z,9.07
2019-03-08T15:43:09.586Z,6.87
2019-03-08T15:45:40.173Z,7.37
2019-03-08T15:48:10.871Z,6.20
2019-03-08T15:50:37.871Z,10.93
2019-03-08T15:53:06.324Z,11.60
2019-03-08T15:55:34.749Z,15.60
2019-03-08T15:58:03.275Z,19.93
2019-03-08T16:00:31.703Z,9.03
2019-03-08T16:03:00.217Z,13.23
2019-03-08T16:05:30.121Z,8.27
2019-03-08T16:08:01.920Z,8.03
2019-03-08T16:10:29.059Z,12.43
2019-03-08T16:12:57.586Z,17.17
2019-03-08T16:15:26.699Z,13.97
2019-03-08T16:17:55.193Z,16.23
2019-03-08T16:20:23.691Z,10.67
2019-03-08T16:22:52.142Z,12.03
2019-03-08T16:25:20.585Z,17.73
2019-03-08T16:27:49.028Z,18.87
2019-03-08T16:30:21.970Z,20.13
2019-03-08T16:32:58.029Z,18.53
2019-03-08T16:35:28.374Z,17.87
2019-03-08T16:38:10.361Z,17.43
2019-03-08T16:40:56.670Z,17.30
2019-03-08T16:43:32.289Z,16.07
2019-03-08T16:46:05.088Z,20.83
2019-03-08T16:48:35.109Z,20.07
2019-03-08T16:51:08.005Z,12.40
2019-03-08T16:53:40.636Z,16.13
2019-03-08T16:56:10.768Z,24.27
2019-03-08T16:58:47.252Z,16.40
2019-03-08T17:01:23.156Z,15.77
2019-03-08T17:04:11.381Z,17.23
2019-03-08T17:06:57.898Z,19.70
2019-03-08T17:09:30.781Z,20.57
2019-03-08T17:12:00.881Z,18.73
2019-03-08T17:14:47.505Z,19.53
2019-03-08T17:17:20.750Z,17.40
2019-03-08T17:20:06.341Z,16.70
2019-03-08T17:22:45.185Z,17.53
2019-03-08T17:25:18.265Z,14.50
2019-03-08T17:28:00.293Z,19.63
2019-03-08T17:30:32.966Z,17.37
2019-03-08T17:33:05.829Z,15.53
2019-03-08T17:35:44.735Z,17.93
2019-03-08T17:38:31.345Z,20.57
2019-03-08T17:41:01.781Z,15.07
2019-03-08T17:43:34.837Z,16.03
2019-03-08T17:46:21.117Z,23.53
2019-03-08T17:49:07.581Z,18.20
2019-03-08T17:51:43.601Z,24.60
2019-03-08T17:54:30.029Z,17.17
2019-03-08T17:57:18.332Z,20.33
2019-03-08T17:59:50.962Z,19.37
2019-03-08T18:02:21.496Z,20.13
2019-03-08T18:05:00.796Z,23.40
2019-03-08T18:07:46.134Z,23.07
2019-03-08T18:10:18.949Z,20.77
2019-03-08T18:12:52.058Z,23.10
2019-03-08T18:15:31.089Z,17.20
2019-03-08T18:18:06.864Z,21.10
2019-03-08T18:20:37.022Z,21.23
2019-03-08T18:23:09.788Z,16.50
2019-03-08T18:25:39.869Z,19.30
2019-03-08T18:28:13.010Z,21.00
2019-03-08T18:30:46.029Z,19.83
2019-03-08T18:33:25.127Z,17.70
2019-03-08T18:36:10.270Z,19.37
2019-03-08T18:38:52.701Z,18.97
2019-03-08T18:41:31.636Z,16.13
2019-03-08T18:44:04.752Z,18.53
2019-03-08T18:46:41.012Z,19.03
2019-03-08T18:49:13.945Z,16.70
2019-03-08T18:51:53.218Z,16.40
2019-03-08T18:54:26.104Z,18.27
2019-03-08T18:56:56.560Z,20.87
2019-03-08T18:59:26.725Z,17.43
2019-03-08T19:01:56.823Z,18.73
2019-03-08T19:04:43.346Z,18.90
2019-03-08T19:07:29.981Z,16.07
2019-03-08T19:10:00.094Z,20.47
2019-03-08T19:12:35.851Z,21.37
2019-03-08T19:15:08.823Z,21.87
2019-03-08T19:17:38.921Z,21.80
2019-03-08T19:20:16.698Z,19.47
2019-03-08T19:23:02.086Z,18.70
2019-03-08T19:25:32.172Z,19.40
2019-03-08T19:28:04.900Z,25.10
2019-03-08T19:30:37.592Z,25.77
2019-03-08T19:33:10.348Z,20.90
2019-03-08T19:35:40.454Z,23.63
2019-03-08T19:38:13.379Z,24.77
2019-03-08T19:40:43.469Z,26.17
2019-03-08T19:43:13.624Z,27.30
2019-03-08T19:45:43.729Z,29.70
2019-03-08T19:48:13.825Z,24.50
2019-03-08T19:51:02.653Z,24.07
2019-03-08T19:53:47.917Z,20.60
2019-03-08T19:56:17.972Z,21.83
2019-03-08T19:58:59.872Z,24.20
2019-03-08T20:01:29.943Z,21.43
2019-03-08T20:04:00.015Z,20.30
2019-03-08T20:06:32.850Z,21.80
2019-03-08T20:09:17.993Z,24.63
2019-03-08T20:12:03.128Z,21.97
2019-03-08T20:14:49.450Z,19.77
2019-03-08T20:17:19.535Z,27.43
2019-03-08T20:19:52.603Z,18.03
2019-03-08T20:22:34.544Z,24.00
2019-03-08T20:25:04.777Z,22.07
2019-03-08T20:27:44.048Z,19.97
2019-03-08T20:30:17.559Z,23.50
2019-03-08T20:33:03.817Z,23.07
2019-03-08T20:35:39.672Z,23.53
2019-03-08T20:38:21.741Z,23.03
2019-03-08T20:41:08.032Z,17.03
2019-03-08T20:43:38.133Z,22.83
2019-03-08T20:46:08.212Z,14.07
2019-03-08T20:48:36.656Z,5.87
2019-03-08T20:51:05.173Z,6.37
2019-03-08T20:53:33.626Z,11.07
2019-03-08T20:56:02.132Z,11.10
2019-03-08T20:58:30.569Z,13.87
2019-03-08T21:00:59.031Z,14.03
2019-03-08T21:03:27.479Z,14.20
2019-03-08T21:05:56.287Z,15.17
2019-03-08T21:08:24.744Z,15.73
2019-03-08T21:10:53.196Z,16.00
2019-03-08T21:13:21.630Z,17.50
2019-03-08T21:15:50.125Z,16.27
2019-03-08T21:18:18.556Z,18.00
2019-03-08T21:20:47.013Z,20.37
2019-03-08T21:23:15.442Z,18.60
2019-03-08T21:25:43.973Z,20.33
2019-03-08T21:28:12.402Z,20.80
2019-03-08T21:30:40.912Z,24.10
2019-03-08T21:33:09.620Z,22.97
2019-03-08T21:35:38.081Z,23.00
2019-03-08T21:38:06.519Z,26.13
2019-03-08T21:40:34.936Z,25.50
2019-03-08T21:43:03.489Z,28.57
2019-03-08T21:45:31.987Z,27.53
2019-03-08T21:48:00.506Z,28.73
2019-03-08T21:50:28.928Z,32.00
2019-03-08T21:52:57.382Z,29.10
2019-03-08T21:55:25.809Z,35.70
2019-03-08T21:57:54.258Z,27.80
2019-03-08T22:00:25.097Z,35.57
2019-03-08T22:02:53.601Z,26.80
2019-03-08T22:05:23.768Z,20.27
2019-03-08T22:07:52.184Z,21.23
2019-03-08T22:10:25.112Z,22.80
2019-03-08T22:12:53.827Z,20.93
2019-03-08T22:15:22.349Z,22.50
2019-03-08T22:17:50.777Z,21.70
2019-03-08T22:20:19.234Z,23.20
2019-03-08T22:22:47.661Z,19.73
2019-03-08T22:25:16.289Z,23.50
2019-03-08T22:27:44.723Z,19.80
2019-03-08T22:30:20.297Z,20.03
2019-03-08T22:32:48.753Z,21.03
2019-03-08T22:35:17.220Z,19.50
2019-03-08T22:37:45.732Z,19.07
2019-03-08T22:40:14.281Z,18.57
2019-03-08T22:42:42.800Z,19.30
2019-03-08T22:45:12.293Z,17.50
2019-03-08T22:47:40.749Z,18.60
2019-03-08T22:50:11.811Z,23.13
2019-03-08T22:52:40.331Z,20.97
2019-03-08T22:55:16.164Z,18.40
2019-03-08T22:57:44.689Z,21.40
2019-03-08T23:00:30.107Z,18.03
2019-03-08T23:02:58.712Z,21.13
2019-03-08T23:05:27.273Z,17.43
2019-03-08T23:07:55.716Z,21.23
2019-03-08T23:10:24.140Z,23.57
2019-03-08T23:12:52.630Z,20.93
2019-03-08T23:15:21.082Z,20.43
2019-03-08T23:17:49.532Z,21.90
2019-03-08T23:20:17.956Z,24.70
2019-03-08T23:22:46.413Z,18.03
2019-03-08T23:25:15.718Z,21.33
2019-03-08T23:27:58.319Z,19.67
2019-03-08T23:30:27.440Z,21.73
2019-03-08T23:32:55.860Z,23.10
2019-03-08T23:35:24.311Z,17.97
2019-03-08T23:37:52.741Z,18.53
2019-03-08T23:40:21.187Z,18.70
2019-03-08T23:42:49.641Z,18.53
2019-03-08T23:45:18.082Z,21.90
2019-03-08T23:47:46.497Z,20.83
2019-03-08T23:50:15.016Z,21.03
2019-03-08T23:52:43.753Z,24.40
2019-03-08T23:55:12.187Z,17.73
2019-03-08T23:57:40.636Z,17.30
